createdAt,value
2022-10-12T00:02:22.519Z,8.27
2022-10-12T00:04:49.385Z,8.38
2022-10-12T00:07:16.395Z,8.60
2022-10-12T00:09:43.343Z,8.48
2022-10-12T00:12:10.128Z,7.78
2022-10-12T00:14:37.943Z,8.80
2022-10-12T00:17:04.966Z,7.90
2022-10-12T00:19:31.835Z,8.45
2022-10-12T00:21:58.594Z,8.30
2022-10-12T00:24:25.608Z,8.20
2022-10-12T00:26:52.693Z,8.07
2022-10-12T00:29:19.520Z,7.95
2022-10-12T00:31:46.328Z,7.38
2022-10-12T00:34:13.030Z,6.60
2022-10-12T00:36:39.910Z,6.07
2022-10-12T00:39:08.461Z,6.30
2022-10-12T00:41:41.228Z,5.78
2022-10-12T00:44:38.947Z,4.93
2022-10-12T00:49:57.897Z,5.38
2022-10-12T00:52:32.034Z,5.20
2022-10-12T00:55:00.182Z,4.55
2022-10-12T01:00:04.807Z,3.38
2022-10-12T01:02:34.453Z,3.03
2022-10-12T01:05:02.024Z,4.15
2022-10-12T01:07:28.977Z,7.63
2022-10-12T01:09:55.999Z,6.93
2022-10-12T01:12:24.131Z,4.70
2022-10-12T01:17:39.179Z,5.30
2022-10-12T01:20:31.501Z,5.22
2022-10-12T01:23:16.976Z,5.30
2022-10-12T01:25:53.177Z,7.55
2022-10-12T01:28:42.994Z,7.20
2022-10-12T01:31:32.751Z,6.35
2022-10-12T01:34:21.804Z,6.65
2022-10-12T01:37:07.204Z,7.60
2022-10-12T01:39:56.347Z,7.85
2022-10-12T01:42:31.939Z,7.20
2022-10-12T01:45:19.379Z,6.35
2022-10-12T01:47:52.450Z,6.88
2022-10-12T01:50:21.969Z,6.97
2022-10-12T01:53:06.693Z,7.53
2022-10-12T01:55:42.900Z,8.55
2022-10-12T01:58:44.990Z,7.72
2022-10-12T02:01:26.929Z,7.95
2022-10-12T02:04:20.324Z,8.45
2022-10-12T02:06:52.671Z,7.25
2022-10-12T02:09:30.489Z,7.50
2022-10-12T02:12:00.823Z,7.45
2022-10-12T02:14:33.003Z,7.55
2022-10-12T02:17:04.474Z,7.25
2022-10-12T02:19:38.190Z,6.60
2022-10-12T02:22:07.224Z,6.13
2022-10-12T02:24:37.281Z,6.47
2022-10-12T02:27:05.473Z,6.15
2022-10-12T02:32:25.386Z,6.35
2022-10-12T02:35:01.267Z,6.95
2022-10-12T02:37:38.740Z,6.53
2022-10-12T02:40:29.406Z,6.28
2022-10-12T02:43:14.030Z,6.88
2022-10-12T02:45:45.233Z,6.63
2022-10-12T02:48:17.615Z,6.93
2022-10-12T02:50:45.460Z,7.85
2022-10-12T02:53:13.687Z,7.97
2022-10-12T02:55:51.583Z,7.45
2022-10-12T03:00:45.475Z,7.00
2022-10-12T03:03:12.321Z,7.63
2022-10-12T03:05:39.042Z,7.05
2022-10-12T03:08:05.845Z,6.03
2022-10-12T03:10:32.660Z,7.05
2022-10-12T03:12:59.436Z,8.25
2022-10-12T03:15:26.167Z,7.65
2022-10-12T03:17:52.987Z,8.02
2022-10-12T03:20:19.802Z,7.63
2022-10-12T03:22:46.734Z,7.68
2022-10-12T03:25:13.940Z,7.47
2022-10-12T03:27:43.481Z,7.72
2022-10-12T03:30:11.508Z,7.75
2022-10-12T03:32:39.990Z,7.68
2022-10-12T03:35:07.572Z,7.68
2022-10-12T03:37:34.386Z,7.40
2022-10-12T03:40:01.420Z,6.75
2022-10-12T03:42:28.228Z,6.72
2022-10-12T03:44:55.009Z,5.80
2022-10-12T03:47:21.912Z,5.25
2022-10-12T03:49:48.885Z,5.30
2022-10-12T03:52:15.644Z,5.50
2022-10-12T03:54:42.380Z,6.25
2022-10-12T03:57:09.105Z,6.53
2022-10-12T03:59:35.831Z,5.95
2022-10-12T04:02:02.576Z,5.50
2022-10-12T04:04:29.456Z,5.35
2022-10-12T04:06:56.264Z,6.03
2022-10-12T04:09:23.061Z,5.20
2022-10-12T04:11:49.771Z,5.10
2022-10-12T04:14:16.475Z,5.30
2022-10-12T04:16:43.322Z,5.70
2022-10-12T04:19:14.084Z,5.97
2022-10-12T04:21:41.153Z,5.70
2022-10-12T04:24:08.196Z,5.70
2022-10-12T04:26:34.960Z,5.20
2022-10-12T04:29:01.974Z,5.65
2022-10-12T04:31:28.845Z,6.07
2022-10-12T04:33:58.699Z,6.85
2022-10-12T04:36:26.008Z,6.22
2022-10-12T04:38:58.402Z,7.00
2022-10-12T04:41:27.810Z,6.20
2022-10-12T04:43:54.584Z,5.97
2022-10-12T04:46:21.817Z,5.70
2022-10-12T04:48:48.609Z,5.67
2022-10-12T04:51:15.582Z,5.80
2022-10-12T04:53:42.610Z,5.65
2022-10-12T04:56:09.561Z,6.32
2022-10-12T04:58:36.478Z,7.60
2022-10-12T05:01:03.448Z,6.60
2022-10-12T05:03:30.312Z,6.30
2022-10-12T05:05:57.146Z,5.47
2022-10-12T05:08:23.914Z,5.13
2022-10-12T05:10:50.752Z,4.97
2022-10-12T05:13:17.859Z,4.95
2022-10-12T05:15:44.807Z,5.60
2022-10-12T05:18:11.892Z,6.30
2022-10-12T05:20:38.617Z,5.50
2022-10-12T05:23:05.389Z,5.10
2022-10-12T05:25:32.804Z,5.13
2022-10-12T05:27:59.526Z,4.88
2022-10-12T05:30:26.534Z,4.60
2022-10-12T05:32:53.291Z,4.97
2022-10-12T05:35:22.722Z,4.97
2022-10-12T05:37:49.809Z,4.55
2022-10-12T05:40:16.745Z,4.30
2022-10-12T05:42:44.621Z,3.83
2022-10-12T05:45:11.909Z,4.47
2022-10-12T05:47:39.893Z,4.78
2022-10-12T05:50:07.416Z,4.25
2022-10-12T05:52:34.245Z,5.82
2022-10-12T05:55:00.979Z,4.63
2022-10-12T05:57:27.739Z,4.78
2022-10-12T05:59:59.729Z,4.72
2022-10-12T06:02:26.687Z,4.80
2022-10-12T06:04:53.769Z,4.78
2022-10-12T06:07:20.543Z,4.72
2022-10-12T06:09:50.348Z,4.88
2022-10-12T06:12:17.172Z,5.13
2022-10-12T06:14:43.998Z,4.47
2022-10-12T06:17:10.821Z,4.22
2022-10-12T06:19:37.799Z,4.25
2022-10-12T06:22:04.853Z,4.55
2022-10-12T06:24:31.707Z,5.03
2022-10-12T06:26:58.413Z,5.05
2022-10-12T06:29:25.206Z,5.20
2022-10-12T06:31:52.271Z,5.07
2022-10-12T06:34:19.098Z,3.85
2022-10-12T06:36:45.863Z,5.50
2022-10-12T06:39:13.083Z,5.45
2022-10-12T06:41:39.791Z,5.25
2022-10-12T06:44:09.213Z,6.45
2022-10-12T06:46:35.932Z,5.68
2022-10-12T06:49:02.675Z,6.03
2022-10-12T06:51:29.444Z,5.57
2022-10-12T06:53:56.605Z,5.50
2022-10-12T06:56:23.402Z,5.87
2022-10-12T06:58:56.416Z,6.10
2022-10-12T07:01:23.310Z,5.68
2022-10-12T07:03:50.163Z,5.65
2022-10-12T07:06:17.131Z,5.70
2022-10-12T07:08:44.091Z,6.18
2022-10-12T07:11:12.755Z,6.18
2022-10-12T07:13:39.788Z,6.55
2022-10-12T07:16:07.207Z,7.97
2022-10-12T07:18:34.315Z,8.10
2022-10-12T07:21:02.424Z,8.95
2022-10-12T07:26:00.341Z,8.93
2022-10-12T07:28:27.241Z,8.98
2022-10-12T07:30:54.227Z,8.52
2022-10-12T07:33:21.122Z,7.95
2022-10-12T07:36:12.672Z,8.27
2022-10-12T07:38:44.052Z,7.72
2022-10-12T07:41:11.429Z,6.85
2022-10-12T07:43:39.050Z,7.28
2022-10-12T07:46:05.813Z,7.00
2022-10-12T07:48:33.083Z,6.78
2022-10-12T07:51:10.483Z,6.70
2022-10-12T07:53:38.611Z,5.57
2022-10-12T07:56:14.733Z,5.70
2022-10-12T07:58:52.891Z,4.95
2022-10-12T08:01:25.611Z,4.38
2022-10-12T08:03:56.308Z,5.03
2022-10-12T08:06:28.151Z,3.80
2022-10-12T08:08:55.205Z,4.20
2022-10-12T08:11:22.275Z,3.55
2022-10-12T08:13:49.568Z,4.00
2022-10-12T08:16:18.947Z,3.50
2022-10-12T08:18:46.084Z,3.55
2022-10-12T08:21:15.193Z,3.38
2022-10-12T08:23:44.344Z,3.65
2022-10-12T08:26:15.685Z,3.55
2022-10-12T08:28:43.265Z,3.53
2022-10-12T08:31:30.395Z,3.65
2022-10-12T08:33:58.497Z,3.60
2022-10-12T08:36:25.213Z,3.70
2022-10-12T08:38:54.865Z,3.28
2022-10-12T08:41:45.921Z,3.80
2022-10-12T08:44:57.143Z,3.60
2022-10-12T08:47:31.654Z,3.50
2022-10-12T08:50:00.244Z,3.20
2022-10-12T08:52:49.818Z,3.65
2022-10-12T08:55:28.790Z,3.40
2022-10-12T08:57:55.628Z,3.33
2022-10-12T09:00:22.501Z,3.45
2022-10-12T09:03:18.945Z,3.53
2022-10-12T09:06:04.032Z,2.85
2022-10-12T09:08:53.169Z,2.70
2022-10-12T09:11:50.289Z,2.55
2022-10-12T09:14:25.256Z,2.75
2022-10-12T09:16:54.295Z,2.65
2022-10-12T09:19:37.720Z,2.97
2022-10-12T09:22:06.669Z,3.60
2022-10-12T09:24:39.303Z,2.90
2022-10-12T09:27:18.468Z,3.55
2022-10-12T09:29:53.177Z,2.88
2022-10-12T09:32:31.823Z,3.47
2022-10-12T09:34:59.637Z,3.10
2022-10-12T09:37:30.326Z,3.15
2022-10-12T09:39:57.945Z,3.60
2022-10-12T09:42:27.492Z,3.05
2022-10-12T09:45:16.554Z,2.80
2022-10-12T09:48:11.041Z,3.05
2022-10-12T09:50:44.687Z,2.97
2022-10-12T09:53:31.553Z,3.63
2022-10-12T09:56:05.498Z,2.53
2022-10-12T09:58:41.068Z,2.35
2022-10-12T10:01:16.465Z,2.25
2022-10-12T10:03:43.486Z,2.58
2022-10-12T10:06:10.545Z,3.35
2022-10-12T10:08:45.599Z,2.25
2022-10-12T10:11:33.017Z,2.10
2022-10-12T10:14:01.536Z,2.38
2022-10-12T10:16:30.521Z,1.98
2022-10-12T10:19:00.555Z,1.80
2022-10-12T10:21:34.398Z,1.90
2022-10-12T10:24:05.106Z,1.83
2022-10-12T10:26:57.397Z,2.20
2022-10-12T10:29:35.491Z,1.60
2022-10-12T10:35:02.282Z,1.17
2022-10-12T10:37:32.278Z,1.63
2022-10-12T10:39:59.945Z,1.95
2022-10-12T10:42:31.520Z,1.58
2022-10-12T10:45:08.804Z,1.58
2022-10-12T10:47:46.251Z,1.67
2022-10-12T10:50:42.069Z,1.40
2022-10-12T10:53:21.582Z,1.45
2022-10-12T10:55:54.218Z,1.35
2022-10-12T10:58:36.963Z,1.05
2022-10-12T11:01:19.483Z,1.52
2022-10-12T11:04:01.207Z,1.33
2022-10-12T11:06:33.183Z,1.23
2022-10-12T11:09:10.732Z,1.20
2022-10-12T11:11:39.665Z,1.25
2022-10-12T11:14:21.584Z,1.30
2022-10-12T11:16:53.073Z,1.30
2022-10-12T11:19:36.587Z,1.20
2022-10-12T11:22:13.217Z,1.35
2022-10-12T11:24:58.881Z,1.77
2022-10-12T11:27:32.943Z,1.88
2022-10-12T11:30:10.039Z,1.40
2022-10-12T11:32:59.730Z,1.40
2022-10-12T11:35:34.819Z,1.50
2022-10-12T11:38:26.966Z,1.80
2022-10-12T11:41:31.128Z,1.92
2022-10-12T11:43:48.313Z,1.77
2022-10-12T11:46:18.840Z,2.60
2022-10-12T11:49:01.863Z,1.90
2022-10-12T11:51:28.614Z,2.30
2022-10-12T11:54:25.651Z,1.50
2022-10-12T11:56:56.208Z,1.60
2022-10-12T11:59:40.843Z,1.70
2022-10-12T12:02:20.674Z,1.35
2022-10-12T12:04:51.795Z,1.58
2022-10-12T12:07:39.205Z,1.77
2022-10-12T12:10:34.875Z,2.00
2022-10-12T12:13:12.530Z,1.48
2022-10-12T12:15:41.010Z,1.50
2022-10-12T12:18:12.195Z,1.13
2022-10-12T12:21:05.414Z,1.33
2022-10-12T12:23:52.344Z,1.50
2022-10-12T12:26:21.964Z,1.17
2022-10-12T12:29:08.956Z,1.27
2022-10-12T12:31:36.121Z,1.10
2022-10-12T12:34:13.517Z,1.30
2022-10-12T12:36:45.010Z,1.40
2022-10-12T12:39:30.368Z,1.20
2022-10-12T12:42:01.979Z,1.40
2022-10-12T12:44:37.024Z,1.65
2022-10-12T12:47:08.523Z,1.60
2022-10-12T12:49:52.745Z,1.45
2022-10-12T12:52:38.893Z,1.40
2022-10-12T12:55:33.370Z,1.73
2022-10-12T12:58:11.224Z,1.55
2022-10-12T13:01:17.356Z,1.73
2022-10-12T13:04:02.679Z,2.00
2022-10-12T13:06:47.881Z,1.85
2022-10-12T13:09:21.644Z,1.48
2022-10-12T13:11:57.040Z,1.50
2022-10-12T13:14:56.291Z,1.30
2022-10-12T13:17:33.842Z,1.75
2022-10-12T13:20:27.927Z,1.30
2022-10-12T13:22:57.781Z,1.30
2022-10-12T13:25:33.906Z,1.27
2022-10-12T13:28:04.975Z,1.33
2022-10-12T13:30:40.624Z,1.60
2022-10-12T13:33:10.568Z,1.77
2022-10-12T13:36:06.092Z,1.55
2022-10-12T13:38:35.826Z,1.77
2022-10-12T13:41:16.532Z,1.80
2022-10-12T13:44:21.721Z,1.20
2022-10-12T13:46:51.581Z,1.60
2022-10-12T13:49:20.054Z,1.60
2022-10-12T13:51:50.644Z,1.60
2022-10-12T13:54:18.978Z,1.10
2022-10-12T13:56:57.558Z,1.17
2022-10-12T13:59:31.004Z,1.50
2022-10-12T14:02:02.583Z,1.42
2022-10-12T14:04:34.362Z,1.30
2022-10-12T14:07:10.474Z,1.60
2022-10-12T14:09:45.669Z,1.60
2022-10-12T14:12:14.132Z,1.58
2022-10-12T14:14:44.274Z,1.30
2022-10-12T14:17:19.067Z,1.42
2022-10-12T14:19:49.768Z,1.48
2022-10-12T14:22:32.672Z,1.33
2022-10-12T14:25:16.065Z,1.42
2022-10-12T14:27:43.514Z,1.40
2022-10-12T14:30:26.960Z,1.40
2022-10-12T14:32:59.683Z,1.40
2022-10-12T14:35:29.631Z,1.23
2022-10-12T14:37:57.094Z,1.50
2022-10-12T14:40:33.970Z,1.38
2022-10-12T14:43:14.053Z,1.27
2022-10-12T14:45:41.259Z,1.95
2022-10-12T14:50:44.948Z,1.60
2022-10-12T14:53:13.542Z,1.13
2022-10-12T14:55:41.630Z,1.40
2022-10-12T14:58:16.390Z,2.10
2022-10-12T15:00:44.087Z,1.83
2022-10-12T15:03:11.527Z,2.10
2022-10-12T15:08:08.816Z,2.08
2022-10-12T15:10:37.105Z,1.38
2022-10-12T15:13:04.468Z,1.95
2022-10-12T15:15:42.473Z,2.03
2022-10-12T15:18:09.950Z,6.15
2022-10-12T15:20:37.281Z,4.03
2022-10-12T15:23:05.367Z,2.63
2022-10-12T15:25:51.297Z,2.78
2022-10-12T15:28:18.671Z,2.90
2022-10-12T15:31:15.442Z,3.15
2022-10-12T15:33:33.568Z,2.50
2022-10-12T15:36:00.315Z,2.58
2022-10-12T15:38:27.169Z,2.30
2022-10-12T15:40:56.092Z,2.28
2022-10-12T15:43:23.324Z,2.20
2022-10-12T15:45:50.164Z,2.05
2022-10-12T15:48:17.158Z,2.13
2022-10-12T15:50:46.575Z,2.20
2022-10-12T15:53:24.196Z,1.83
2022-10-12T15:55:52.604Z,2.47
2022-10-12T15:58:19.426Z,1.73
2022-10-12T16:00:46.486Z,1.75
2022-10-12T16:03:25.220Z,1.80
2022-10-12T16:05:53.439Z,2.10
2022-10-12T16:08:20.382Z,2.05
2022-10-12T16:10:48.270Z,1.38
2022-10-12T16:13:16.414Z,1.48
2022-10-12T16:15:44.026Z,1.20
2022-10-12T16:18:11.863Z,1.17
2022-10-12T16:20:39.344Z,1.33
2022-10-12T16:23:11.364Z,1.40
2022-10-12T16:25:38.229Z,1.20
2022-10-12T16:28:05.234Z,1.23
2022-10-12T16:30:32.583Z,1.30
2022-10-12T16:32:59.328Z,1.50
2022-10-12T16:35:26.428Z,1.45
2022-10-12T16:37:53.205Z,1.30
2022-10-12T16:40:20.265Z,1.30
2022-10-12T16:42:54.476Z,1.65
2022-10-12T16:45:22.520Z,1.40
2022-10-12T16:47:50.510Z,1.52
2022-10-12T16:50:18.878Z,1.33
2022-10-12T16:52:50.468Z,1.80
2022-10-12T16:55:18.499Z,1.50
2022-10-12T16:57:46.712Z,1.60
2022-10-12T17:02:42.139Z,1.80
2022-10-12T17:05:09.102Z,2.10
2022-10-12T17:07:35.836Z,1.60
2022-10-12T17:10:02.913Z,1.85
2022-10-12T17:12:29.688Z,1.55
2022-10-12T17:14:56.406Z,1.35
2022-10-12T17:17:23.294Z,1.45
2022-10-12T17:19:50.393Z,1.50
2022-10-12T17:22:17.679Z,1.50
2022-10-12T17:24:47.685Z,1.63
2022-10-12T17:27:16.794Z,1.70
2022-10-12T17:29:44.163Z,1.80
2022-10-12T17:32:12.107Z,2.08
2022-10-12T17:34:42.901Z,1.63
2022-10-12T17:37:13.757Z,1.90
2022-10-12T17:42:11.073Z,1.73
2022-10-12T17:44:40.674Z,1.52
2022-10-12T17:47:07.535Z,1.80
2022-10-12T17:49:34.545Z,1.52
2022-10-12T17:52:01.516Z,1.80
2022-10-12T17:54:28.712Z,2.00
2022-10-12T17:56:56.192Z,1.67
2022-10-12T17:59:23.918Z,2.10
2022-10-12T18:01:52.409Z,1.73
2022-10-12T18:04:20.219Z,1.80
2022-10-12T18:06:47.060Z,1.92
2022-10-12T18:09:14.264Z,2.42
2022-10-12T18:11:44.833Z,2.25
2022-10-12T18:14:13.119Z,2.55
2022-10-12T18:19:11.289Z,2.80
2022-10-12T18:21:39.083Z,3.40
2022-10-12T18:24:12.315Z,2.80
2022-10-12T18:26:43.812Z,2.58
2022-10-12T18:29:10.753Z,2.90
2022-10-12T18:31:37.889Z,3.00
2022-10-12T18:34:06.625Z,2.60
2022-10-12T18:36:34.323Z,2.90
2022-10-12T18:39:02.667Z,3.25
2022-10-12T18:41:29.882Z,2.47
2022-10-12T18:44:01.258Z,2.60
2022-10-12T18:46:31.208Z,2.53
2022-10-12T18:48:58.504Z,2.88
2022-10-12T18:51:31.161Z,2.10
2022-10-12T18:53:58.982Z,2.90
2022-10-12T18:56:26.286Z,2.55
2022-10-12T18:58:53.652Z,2.67
2022-10-12T19:01:22.846Z,3.27
2022-10-12T19:03:54.512Z,3.08
2022-10-12T19:06:30.168Z,2.85
2022-10-12T19:08:57.992Z,3.58
2022-10-12T19:11:26.829Z,2.95
2022-10-12T19:14:05.844Z,3.05
2022-10-12T19:16:33.387Z,3.03
2022-10-12T19:19:03.003Z,3.33
2022-10-12T19:21:30.662Z,3.22
2022-10-12T19:23:57.590Z,2.72
2022-10-12T19:26:27.147Z,2.97
2022-10-12T19:28:55.623Z,3.10
2022-10-12T19:31:30.628Z,2.88
2022-10-12T19:33:59.564Z,3.13
2022-10-12T19:36:27.413Z,6.40
2022-10-12T19:39:02.121Z,2.90
2022-10-12T19:41:32.546Z,3.50
2022-10-12T19:44:00.835Z,3.88
2022-10-12T19:48:56.992Z,3.33
2022-10-12T19:51:25.078Z,3.20
2022-10-12T19:53:56.716Z,3.35
2022-10-12T19:56:24.014Z,3.60
2022-10-12T19:58:52.646Z,3.45
2022-10-12T20:01:22.044Z,3.85
2022-10-12T20:03:50.611Z,3.30
2022-10-12T20:06:19.209Z,3.20
2022-10-12T20:08:46.463Z,3.33
2022-10-12T20:11:18.485Z,4.05
2022-10-12T20:13:48.086Z,3.47
2022-10-12T20:16:16.696Z,4.05
2022-10-12T20:18:43.875Z,4.32
2022-10-12T20:21:13.281Z,4.50
2022-10-12T20:23:41.961Z,5.50
2022-10-12T20:26:12.169Z,4.50
2022-10-12T20:28:39.295Z,4.57
2022-10-12T20:31:07.211Z,4.65
2022-10-12T20:33:35.910Z,4.10
2022-10-12T20:36:04.232Z,4.43
2022-10-12T20:38:31.098Z,4.43
2022-10-12T20:41:12.638Z,4.40
2022-10-12T20:43:40.663Z,3.97
2022-10-12T20:46:14.132Z,4.38
2022-10-12T20:48:41.949Z,4.53
2022-10-12T20:51:12.309Z,4.10
2022-10-12T20:53:39.380Z,4.32
2022-10-12T20:56:06.993Z,4.32
2022-10-12T20:58:37.098Z,3.80
2022-10-12T21:01:10.338Z,4.00
2022-10-12T21:03:37.663Z,3.83
2022-10-12T21:06:09.178Z,3.90
2022-10-12T21:08:36.845Z,3.67
2022-10-12T21:11:05.175Z,4.07
2022-10-12T21:13:40.675Z,4.05
2022-10-12T21:16:13.898Z,4.03
2022-10-12T21:18:41.589Z,3.83
2022-10-12T21:21:16.232Z,4.50
2022-10-12T21:23:45.839Z,3.88
2022-10-12T21:26:18.403Z,4.47
2022-10-12T21:28:46.391Z,4.45
2022-10-12T21:31:14.378Z,4.50
2022-10-12T21:33:41.330Z,5.20
2022-10-12T21:36:16.781Z,4.68
2022-10-12T21:38:43.742Z,4.57
2022-10-12T21:41:12.717Z,4.50
2022-10-12T21:43:40.617Z,4.45
2022-10-12T21:46:13.754Z,4.78
2022-10-12T21:48:40.635Z,3.95
2022-10-12T21:51:08.937Z,4.43
2022-10-12T21:53:38.772Z,4.22
2022-10-12T21:56:12.890Z,3.78
2022-10-12T21:58:39.817Z,4.00
2022-10-12T22:01:13.489Z,4.03
2022-10-12T22:03:41.181Z,4.05
2022-10-12T22:06:13.482Z,3.90
2022-10-12T22:08:40.583Z,3.65
2022-10-12T22:11:13.513Z,3.50
2022-10-12T22:13:40.540Z,3.90
2022-10-12T22:16:18.455Z,4.15
2022-10-12T22:18:45.649Z,3.83
2022-10-12T22:21:15.559Z,4.33
2022-10-12T22:23:43.288Z,4.50
2022-10-12T22:26:21.164Z,4.25
2022-10-12T22:28:53.144Z,3.95
2022-10-12T22:31:21.201Z,4.05
2022-10-12T22:33:48.162Z,4.10
2022-10-12T22:36:15.740Z,3.63
2022-10-12T22:38:43.311Z,3.70
2022-10-12T22:41:13.506Z,3.97
2022-10-12T22:43:46.951Z,3.90
2022-10-12T22:46:14.283Z,3.88
2022-10-12T22:48:41.590Z,3.70
2022-10-12T22:51:11.850Z,3.70
2022-10-12T22:53:39.386Z,3.78
2022-10-12T22:56:14.950Z,3.40
2022-10-12T22:58:42.390Z,3.75
2022-10-12T23:01:13.719Z,3.78
2022-10-12T23:03:41.325Z,3.38
2022-10-12T23:06:12.576Z,3.58
2022-10-12T23:08:39.874Z,4.00
2022-10-12T23:11:09.366Z,3.50
2022-10-12T23:13:37.217Z,3.70
2022-10-12T23:16:13.071Z,3.65
2022-10-12T23:18:40.355Z,3.90
2022-10-12T23:21:09.702Z,4.10
2022-10-12T23:23:37.985Z,4.15
2022-10-12T23:26:08.387Z,4.07
2022-10-12T23:28:35.419Z,4.15
2022-10-12T23:31:07.071Z,4.80
2022-10-12T23:33:34.413Z,4.03
2022-10-12T23:36:04.247Z,4.38
2022-10-12T23:38:32.945Z,4.18
2022-10-12T23:40:59.726Z,4.38
2022-10-12T23:43:26.919Z,4.22
2022-10-12T23:45:55.531Z,4.38
2022-10-12T23:48:23.495Z,4.45
2022-10-12T23:50:51.995Z,4.13
2022-10-12T23:53:20.798Z,4.32
2022-10-12T23:55:48.023Z,4.20
2022-10-12T23:58:15.148Z,4.33
